createdAt,value
2019-01-21T00:00:16.277Z,99478.67
2019-01-21T00:00:47.555Z,99476.09
2019-01-21T00:01:18.836Z,99474.80
2019-01-21T00:01:50.007Z,99476.52
2019-01-21T00:02:21.244Z,99478.69
2019-01-21T00:02:52.430Z,99477.84
2019-01-21T00:03:23.616Z,99472.24
2019-01-21T00:03:54.807Z,99475.66
2019-01-21T00:04:25.986Z,99475.25
2019-01-21T00:04:57.182Z,99479.12
2019-01-21T00:05:28.360Z,99478.25
2019-01-21T00:05:59.572Z,99481.27
2019-01-21T00:06:30.730Z,99473.95
2019-01-21T00:07:01.917Z,99478.25
2019-01-21T00:07:33.336Z,99482.97
2019-01-21T00:08:04.466Z,99477.81
2019-01-21T00:08:35.652Z,99475.25
2019-01-21T00:09:06.835Z,99472.24
2019-01-21T00:09:38.036Z,99481.26
2019-01-21T00:10:09.239Z,99475.25
2019-01-21T00:10:40.443Z,99476.11
2019-01-21T00:11:11.629Z,99478.23
2019-01-21T00:11:42.821Z,99470.52
2019-01-21T00:12:14.010Z,99476.52
2019-01-21T00:12:45.263Z,99474.36
2019-01-21T00:13:16.451Z,99473.48
2019-01-21T00:13:47.669Z,99474.34
2019-01-21T00:14:18.899Z,99477.36
2019-01-21T00:14:50.063Z,99479.91
2019-01-21T00:15:21.263Z,99482.94
2019-01-21T00:15:52.512Z,99479.03
2019-01-21T00:16:23.777Z,99485.91
2019-01-21T00:16:54.969Z,99477.31
2019-01-21T00:17:26.134Z,99479.89
2019-01-21T00:17:57.342Z,99478.62
2019-01-21T00:18:28.515Z,99481.64
2019-01-21T00:18:59.681Z,99485.05
2019-01-21T00:19:30.846Z,99485.48
2019-01-21T00:20:02.059Z,99476.89
2019-01-21T00:20:33.299Z,99485.47
2019-01-21T00:21:04.505Z,99487.64
2019-01-21T00:21:35.689Z,99484.20
2019-01-21T00:22:06.877Z,99256.91
2019-01-21T00:22:38.033Z,99485.48
2019-01-21T00:23:09.239Z,99483.31
2019-01-21T00:23:40.432Z,99485.02
2019-01-21T00:24:11.629Z,99493.20
2019-01-21T00:24:42.858Z,99485.88
2019-01-21T00:25:14.021Z,99491.89
2019-01-21T00:25:45.237Z,99493.17
2019-01-21T00:26:16.417Z,99493.20
2019-01-21T00:26:47.603Z,99491.46
2019-01-21T00:27:18.781Z,99492.30
2019-01-21T00:27:49.978Z,99493.61
2019-01-21T00:28:21.215Z,99492.77
2019-01-21T00:28:52.407Z,99495.77
2019-01-21T00:29:23.579Z,99494.48
2019-01-21T00:29:54.780Z,99493.62
2019-01-21T00:30:25.960Z,99497.91
2019-01-21T00:30:57.167Z,99503.11
2019-01-21T00:31:28.339Z,99498.80
2019-01-21T00:31:59.522Z,99499.69
2019-01-21T00:32:30.724Z,99499.69
2019-01-21T00:33:01.988Z,99505.30
2019-01-21T00:33:33.173Z,99513.45
2019-01-21T00:34:04.368Z,99508.31
2019-01-21T00:34:35.582Z,99510.88
2019-01-21T00:35:06.741Z,99509.19
2019-01-21T00:35:37.936Z,99506.19
2019-01-21T00:36:09.147Z,99508.34
2019-01-21T00:36:40.358Z,99509.17
2019-01-21T00:37:11.538Z,99508.76
2019-01-21T00:37:42.716Z,99512.19
2019-01-21T00:38:13.938Z,99509.61
2019-01-21T00:38:45.115Z,99507.47
2019-01-21T00:39:17.187Z,99510.03
2019-01-21T00:39:48.363Z,99513.48
2019-01-21T00:40:19.533Z,99506.61
2019-01-21T00:40:50.749Z,99512.19
2019-01-21T00:41:21.956Z,99508.76
2019-01-21T00:41:53.124Z,99513.05
2019-01-21T00:42:24.362Z,99506.60
2019-01-21T00:42:55.527Z,99510.92
2019-01-21T00:43:26.743Z,99510.06
2019-01-21T00:43:57.912Z,99506.62
2019-01-21T00:44:29.080Z,99507.48
2019-01-21T00:45:00.295Z,99509.62
2019-01-21T00:45:31.473Z,99509.20
2019-01-21T00:46:02.722Z,99509.62
2019-01-21T00:46:33.902Z,99512.61
2019-01-21T00:47:05.069Z,99513.91
2019-01-21T00:47:36.275Z,99507.05
2019-01-21T00:48:07.498Z,99511.34
2019-01-21T00:48:38.655Z,99513.89
2019-01-21T00:49:09.864Z,99518.63
2019-01-21T00:49:41.043Z,99517.32
2019-01-21T00:50:12.525Z,99513.02
2019-01-21T00:50:43.715Z,99510.05
2019-01-21T00:51:14.889Z,99514.33
2019-01-21T00:51:46.061Z,99518.59
2019-01-21T00:52:17.229Z,99509.17
2019-01-21T00:52:48.437Z,99516.04
2019-01-21T00:53:19.602Z,99511.71
2019-01-21T00:53:50.810Z,99513.87
2019-01-21T00:54:21.975Z,99514.72
2019-01-21T00:54:53.142Z,99519.02
2019-01-21T00:55:24.369Z,99514.75
2019-01-21T00:55:55.549Z,99510.89
2019-01-21T00:56:26.738Z,99519.46
2019-01-21T00:56:57.989Z,99518.16
2019-01-21T00:57:29.166Z,99515.16
2019-01-21T00:58:00.337Z,99517.76
2019-01-21T00:58:31.538Z,99517.76
2019-01-21T00:59:02.718Z,99521.17
2019-01-21T00:59:33.905Z,99517.31
2019-01-21T01:00:05.072Z,99513.89
2019-01-21T01:00:36.291Z,99513.89
2019-01-21T01:01:07.466Z,99520.31
2019-01-21T01:01:38.654Z,99513.47
2019-01-21T01:02:09.847Z,99513.47
2019-01-21T01:02:41.027Z,99512.61
2019-01-21T01:03:12.213Z,99511.33
2019-01-21T01:03:43.408Z,99511.33
2019-01-21T01:04:14.613Z,99513.45
2019-01-21T01:04:45.805Z,99509.19
2019-01-21T01:05:17.026Z,99512.17
2019-01-21T01:05:48.215Z,99515.19
2019-01-21T01:06:19.408Z,99514.76
2019-01-21T01:06:50.586Z,99511.73
2019-01-21T01:07:21.758Z,99516.04
2019-01-21T01:07:52.940Z,99512.19
2019-01-21T01:08:24.100Z,99510.89
2019-01-21T01:08:55.263Z,99512.62
2019-01-21T01:09:26.428Z,99507.90
2019-01-21T01:09:57.667Z,99515.19
2019-01-21T01:10:28.838Z,99507.46
2019-01-21T01:11:00.021Z,99510.88
2019-01-21T01:11:31.237Z,99511.73
2019-01-21T01:12:02.421Z,99512.17
2019-01-21T01:12:33.580Z,99515.16
2019-01-21T01:13:04.757Z,99510.05
2019-01-21T01:13:35.933Z,99511.33
2019-01-21T01:14:07.118Z,99512.17
2019-01-21T01:14:38.292Z,99513.05
2019-01-21T01:15:09.502Z,99514.75
2019-01-21T01:15:40.682Z,99516.91
2019-01-21T01:16:11.889Z,99516.05
2019-01-21T01:16:43.070Z,99516.90
2019-01-21T01:17:14.261Z,99511.75
2019-01-21T01:17:47.463Z,99513.48
2019-01-21T01:18:18.658Z,99516.90
2019-01-21T01:18:49.839Z,99512.61
2019-01-21T01:19:21.002Z,99511.73
2019-01-21T01:19:52.187Z,99509.61
2019-01-21T01:20:23.414Z,99516.45
2019-01-21T01:20:56.850Z,99267.09
2019-01-21T01:21:28.018Z,99513.45
2019-01-21T01:21:59.198Z,99511.75
2019-01-21T01:22:30.402Z,99507.89
2019-01-21T01:23:01.643Z,99505.72
2019-01-21T01:23:32.823Z,99513.01
2019-01-21T01:24:04.004Z,99509.17
2019-01-21T01:24:35.201Z,99509.15
2019-01-21T01:25:06.368Z,99513.44
2019-01-21T01:25:37.573Z,99510.02
2019-01-21T01:26:08.743Z,99513.87
2019-01-21T01:26:39.908Z,99514.73
2019-01-21T01:27:11.079Z,99510.02
2019-01-21T01:27:42.266Z,99513.45
2019-01-21T01:28:13.462Z,99510.88
2019-01-21T01:28:44.614Z,99514.75
2019-01-21T01:29:15.833Z,99519.91
2019-01-21T01:29:47.002Z,99515.16
2019-01-21T01:30:18.181Z,99517.30
2019-01-21T01:30:49.417Z,99515.58
2019-01-21T01:31:20.607Z,99514.30
2019-01-21T01:31:51.782Z,99515.59
2019-01-21T01:32:22.965Z,99512.58
2019-01-21T01:32:54.146Z,99510.42
2019-01-21T01:33:25.317Z,99511.30
2019-01-21T01:33:56.498Z,99515.16
2019-01-21T01:34:27.694Z,99517.30
2019-01-21T01:34:58.866Z,99520.73
2019-01-21T01:35:30.020Z,99518.59
2019-01-21T01:36:01.258Z,99522.02
2019-01-21T01:36:32.444Z,99521.57
2019-01-21T01:37:03.608Z,99519.41
2019-01-21T01:37:34.785Z,99519.41
2019-01-21T01:38:05.948Z,99518.13
2019-01-21T01:38:37.131Z,99518.98
2019-01-21T01:39:08.307Z,99524.57
2019-01-21T01:39:39.501Z,99518.55
2019-01-21T01:40:10.679Z,99517.67
2019-01-21T01:40:41.881Z,99519.41
2019-01-21T01:41:13.120Z,99357.92
2019-01-21T01:41:44.291Z,99520.25
2019-01-21T01:42:15.510Z,99525.40
2019-01-21T01:42:46.727Z,99524.98
2019-01-21T01:43:17.888Z,99525.42
2019-01-21T01:43:49.069Z,99526.28
2019-01-21T01:44:20.238Z,99521.13
2019-01-21T01:44:51.408Z,99524.55
2019-01-21T01:45:22.580Z,99515.95
2019-01-21T01:45:54.187Z,99524.55
2019-01-21T01:46:25.362Z,99527.53
2019-01-21T01:46:56.544Z,99523.23
2019-01-21T01:47:27.733Z,99524.52
2019-01-21T01:47:58.893Z,99523.67
2019-01-21T01:48:30.074Z,99520.27
2019-01-21T01:49:01.250Z,99525.81
2019-01-21T01:49:32.431Z,99527.97
2019-01-21T01:50:03.610Z,99523.27
2019-01-21T01:50:34.805Z,99521.97
2019-01-21T01:51:06.004Z,99521.13
2019-01-21T01:51:37.178Z,99517.26
2019-01-21T01:52:08.430Z,99513.84
2019-01-21T01:52:39.979Z,99523.28
2019-01-21T01:53:11.152Z,99520.70
2019-01-21T01:53:42.347Z,99519.86
2019-01-21T01:54:13.592Z,99519.41
2019-01-21T01:54:44.762Z,99523.28
2019-01-21T01:55:15.967Z,99520.27
2019-01-21T01:55:47.149Z,99518.13
2019-01-21T01:56:18.308Z,99522.84
2019-01-21T01:56:49.497Z,99521.55
2019-01-21T01:57:20.711Z,99520.27
2019-01-21T01:57:51.901Z,99518.55
2019-01-21T01:58:23.291Z,99515.13
2019-01-21T01:58:54.414Z,99515.98
2019-01-21T01:59:25.614Z,99513.41
2019-01-21T01:59:56.818Z,99514.26
2019-01-21T02:00:28.000Z,99514.23
2019-01-21T02:00:59.182Z,99509.09
2019-01-21T02:01:30.352Z,99513.36
2019-01-21T02:02:01.562Z,99514.23
2019-01-21T02:02:32.767Z,99509.97
2019-01-21T02:03:03.938Z,99518.09
2019-01-21T02:03:35.521Z,99513.37
2019-01-21T02:04:06.730Z,99512.97
2019-01-21T02:04:37.922Z,99509.98
2019-01-21T02:05:09.162Z,99514.25
2019-01-21T02:05:40.344Z,99507.41
2019-01-21T02:06:11.517Z,99512.98
2019-01-21T02:06:42.698Z,99509.12
2019-01-21T02:07:13.880Z,99509.53
2019-01-21T02:07:45.114Z,99512.98
2019-01-21T02:08:16.352Z,99514.27
2019-01-21T02:08:47.532Z,99512.13
2019-01-21T02:09:18.701Z,99511.70
2019-01-21T02:09:49.875Z,99509.97
2019-01-21T02:10:21.066Z,99510.41
2019-01-21T02:10:52.437Z,99502.25
2019-01-21T02:11:23.610Z,99504.41
2019-01-21T02:11:55.103Z,99509.99
2019-01-21T02:12:26.314Z,99509.99
2019-01-21T02:12:57.477Z,99509.11
2019-01-21T02:13:28.702Z,99507.39
2019-01-21T02:13:59.883Z,99509.56
2019-01-21T02:14:31.104Z,99507.81
2019-01-21T02:15:02.313Z,99508.27
2019-01-21T02:15:33.489Z,99509.95
2019-01-21T02:16:04.698Z,99512.97
2019-01-21T02:16:35.893Z,99509.52
2019-01-21T02:17:07.078Z,99508.23
2019-01-21T02:17:39.503Z,99506.52
2019-01-21T02:18:10.737Z,99507.36
2019-01-21T02:18:41.920Z,99509.94
2019-01-21T02:19:13.089Z,99514.65
2019-01-21T02:19:44.310Z,99513.36
2019-01-21T02:20:15.474Z,99506.11
2019-01-21T02:20:46.648Z,99511.69
2019-01-21T02:21:17.878Z,99511.67
2019-01-21T02:21:49.070Z,99510.43
2019-01-21T02:22:20.242Z,99508.29
2019-01-21T02:22:51.409Z,99515.17
2019-01-21T02:23:22.582Z,99510.02
2019-01-21T02:23:53.776Z,99515.20
2019-01-21T02:24:25.272Z,99509.59
2019-01-21T02:24:56.509Z,99512.60
2019-01-21T02:25:27.679Z,99514.73
2019-01-21T02:25:58.853Z,99511.31
2019-01-21T02:26:30.086Z,99510.02
2019-01-21T02:27:01.263Z,99509.60
2019-01-21T02:27:32.457Z,99509.17
2019-01-21T02:28:03.637Z,99513.89
2019-01-21T02:28:34.833Z,99514.31
2019-01-21T02:29:06.041Z,99509.59
2019-01-21T02:29:37.289Z,99503.59
2019-01-21T02:30:08.453Z,99509.60
2019-01-21T02:30:39.622Z,99510.03
2019-01-21T02:31:10.979Z,99507.02
2019-01-21T02:31:42.155Z,99509.16
2019-01-21T02:32:13.355Z,99502.28
2019-01-21T02:32:44.557Z,99502.28
2019-01-21T02:33:15.744Z,99505.73
2019-01-21T02:33:46.921Z,99503.11
2019-01-21T02:34:18.139Z,99505.27
2019-01-21T02:34:49.374Z,99503.54
2019-01-21T02:35:20.618Z,99500.98
2019-01-21T02:35:51.804Z,99505.66
2019-01-21T02:36:22.992Z,99503.94
2019-01-21T02:36:54.374Z,99501.34
2019-01-21T02:37:25.561Z,99498.80
2019-01-21T02:37:57.266Z,99498.80
2019-01-21T02:38:28.502Z,99498.77
2019-01-21T02:38:59.707Z,99497.48
2019-01-21T02:39:30.899Z,99504.35
2019-01-21T02:40:02.052Z,99497.92
2019-01-21T02:40:33.246Z,99500.05
2019-01-21T02:41:04.466Z,99504.37
2019-01-21T02:41:35.693Z,99500.05
2019-01-21T02:42:06.858Z,99501.33
2019-01-21T02:42:38.038Z,99501.77
2019-01-21T02:43:09.209Z,99503.91
2019-01-21T02:43:40.680Z,99504.77
2019-01-21T02:44:11.855Z,99503.04
2019-01-21T02:44:43.027Z,99502.16
2019-01-21T02:45:14.224Z,99499.59
2019-01-21T02:45:45.465Z,99500.88
2019-01-21T02:46:16.649Z,99500.41
2019-01-21T02:46:47.811Z,99500.41
2019-01-21T02:47:18.995Z,99496.15
2019-01-21T02:47:50.161Z,99502.11
2019-01-21T02:48:21.340Z,99497.81
2019-01-21T02:48:52.515Z,99497.41
2019-01-21T02:49:23.763Z,99500.83
2019-01-21T02:49:54.958Z,99498.66
2019-01-21T02:50:26.704Z,99498.26
2019-01-21T02:50:57.908Z,99499.11
2019-01-21T02:51:29.133Z,99495.69
2019-01-21T02:52:00.366Z,99495.25
2019-01-21T02:52:31.521Z,99495.66
2019-01-21T02:53:02.707Z,99495.66
2019-01-21T02:53:33.876Z,99492.65
2019-01-21T02:54:05.049Z,99497.36
2019-01-21T02:54:36.242Z,99500.36
2019-01-21T02:55:07.468Z,99495.66
2019-01-21T02:55:38.636Z,99502.47
2019-01-21T02:56:09.909Z,99487.39
2019-01-21T02:56:41.091Z,99499.84
2019-01-21T02:57:12.609Z,99502.00
2019-01-21T02:57:43.763Z,99502.41
2019-01-21T02:58:15.016Z,99501.05
2019-01-21T02:58:46.181Z,99505.35
2019-01-21T02:59:17.366Z,99511.34
2019-01-21T02:59:48.565Z,99505.80
2019-01-21T03:00:19.766Z,99508.36
2019-01-21T03:00:50.950Z,99510.05
2019-01-21T03:01:22.157Z,99510.82
2019-01-21T03:01:53.385Z,99507.84
2019-01-21T03:02:24.571Z,99514.27
2019-01-21T03:02:56.039Z,99510.86
2019-01-21T03:03:27.216Z,99510.42
2019-01-21T03:03:58.500Z,99514.71
2019-01-21T03:04:29.671Z,99512.55
2019-01-21T03:05:00.876Z,99512.11
2019-01-21T03:05:32.074Z,99511.26
2019-01-21T03:06:03.246Z,99516.39
2019-01-21T03:06:34.413Z,99512.55
2019-01-21T03:07:05.626Z,99516.80
2019-01-21T03:07:36.821Z,99514.64
2019-01-21T03:08:08.047Z,99517.20
2019-01-21T03:08:39.210Z,99513.79
2019-01-21T03:09:10.409Z,99516.36
2019-01-21T03:09:42.198Z,99514.20
2019-01-21T03:10:13.385Z,99517.20
2019-01-21T03:10:44.600Z,99517.20
2019-01-21T03:11:15.777Z,99514.20
2019-01-21T03:11:46.976Z,99512.91
2019-01-21T03:12:18.170Z,99512.06
2019-01-21T03:12:49.336Z,99518.49
2019-01-21T03:13:20.525Z,99521.06
2019-01-21T03:13:51.689Z,99520.22
2019-01-21T03:14:22.942Z,99518.05
2019-01-21T03:14:54.118Z,99515.91
2019-01-21T03:15:25.460Z,99514.63
2019-01-21T03:15:56.637Z,99518.09
2019-01-21T03:16:28.431Z,99514.67
2019-01-21T03:16:59.607Z,99513.39
2019-01-21T03:17:30.780Z,99512.98
2019-01-21T03:18:07.891Z,99509.98
2019-01-21T03:18:34.880Z,99513.43
2019-01-21T03:19:06.081Z,99518.13
2019-01-21T03:19:37.251Z,99516.84
2019-01-21T03:20:08.423Z,99514.71
2019-01-21T03:20:39.637Z,99515.12
2019-01-21T03:21:13.074Z,99515.56
2019-01-21T03:21:44.253Z,99518.97
2019-01-21T03:22:15.434Z,99519.01
2019-01-21T03:22:46.628Z,99518.97
2019-01-21T03:23:18.279Z,99516.41
2019-01-21T03:23:49.439Z,99518.13
2019-01-21T03:24:20.629Z,99515.56
2019-01-21T03:24:51.795Z,99518.56
2019-01-21T03:25:22.975Z,99512.14
2019-01-21T03:25:54.236Z,99512.98
2019-01-21T03:26:25.401Z,99512.14
2019-01-21T03:26:56.575Z,99515.56
2019-01-21T03:27:27.773Z,99518.97
2019-01-21T03:27:58.969Z,99511.70
2019-01-21T03:28:30.142Z,99510.42
2019-01-21T03:29:01.354Z,99514.72
2019-01-21T03:29:32.544Z,99507.89
2019-01-21T03:30:04.351Z,99513.43
2019-01-21T03:30:35.927Z,99514.75
2019-01-21T03:31:07.158Z,99515.19
2019-01-21T03:31:38.326Z,99506.20
2019-01-21T03:32:09.500Z,99515.63
2019-01-21T03:32:40.654Z,99510.94
2019-01-21T03:33:11.845Z,99511.38
2019-01-21T03:33:43.019Z,99513.95
2019-01-21T03:34:14.238Z,99512.22
2019-01-21T03:34:45.407Z,99511.77
2019-01-21T03:35:16.609Z,99515.63
2019-01-21T03:35:48.052Z,99513.91
2019-01-21T03:36:19.225Z,99508.36
2019-01-21T03:36:50.411Z,99507.08
2019-01-21T03:37:21.582Z,99511.34
2019-01-21T03:37:52.758Z,99519.48
2019-01-21T03:38:23.967Z,99515.20
2019-01-21T03:38:55.161Z,99515.20
2019-01-21T03:39:26.330Z,99510.94
2019-01-21T03:39:57.515Z,99516.48
2019-01-21T03:40:28.732Z,99519.09
2019-01-21T03:40:59.897Z,99518.20
2019-01-21T03:41:31.073Z,99519.09
2019-01-21T03:42:02.307Z,99524.22
2019-01-21T03:42:33.956Z,99522.94
2019-01-21T03:43:05.200Z,99519.09
2019-01-21T03:43:36.372Z,99523.38
2019-01-21T03:44:07.547Z,99519.12
2019-01-21T03:44:38.731Z,99521.69
2019-01-21T03:45:09.905Z,99521.69
2019-01-21T03:45:41.072Z,99521.69
2019-01-21T03:46:12.262Z,99519.97
2019-01-21T03:46:43.437Z,99519.16
2019-01-21T03:47:14.666Z,99520.00
2019-01-21T03:47:45.821Z,99518.75
2019-01-21T03:48:17.236Z,99520.03
2019-01-21T03:48:48.420Z,99521.75
2019-01-21T03:49:20.129Z,99517.48
2019-01-21T03:49:51.304Z,99515.33
2019-01-21T03:50:22.471Z,99519.66
2019-01-21T03:50:53.646Z,99518.80
2019-01-21T03:51:24.834Z,99516.67
2019-01-21T03:51:56.012Z,99519.27
2019-01-21T03:52:27.234Z,99521.41
2019-01-21T03:52:58.419Z,99523.56
2019-01-21T03:53:29.598Z,99518.83
2019-01-21T03:54:00.762Z,99512.40
2019-01-21T03:54:31.927Z,99521.00
2019-01-21T03:55:03.379Z,99520.97
2019-01-21T03:55:34.905Z,99515.38
2019-01-21T03:56:06.108Z,99513.25
2019-01-21T03:56:37.304Z,99516.67
2019-01-21T03:57:08.526Z,99515.82
2019-01-21T03:57:39.713Z,99523.13
2019-01-21T03:58:10.872Z,99519.27
2019-01-21T03:58:42.065Z,99520.13
2019-01-21T03:59:13.227Z,99517.11
2019-01-21T03:59:44.406Z,99518.84
2019-01-21T04:00:15.571Z,99525.70
2019-01-21T04:00:46.746Z,99520.55
2019-01-21T04:01:17.919Z,99524.41
2019-01-21T04:01:49.273Z,99526.11
2019-01-21T04:02:20.522Z,99525.27
2019-01-21T04:02:51.744Z,99519.68
2019-01-21T04:03:22.956Z,99525.27
2019-01-21T04:03:54.186Z,99526.95
2019-01-21T04:04:25.336Z,99522.66
2019-01-21T04:04:56.509Z,99525.67
2019-01-21T04:05:27.691Z,99525.23
2019-01-21T04:05:58.874Z,99527.36
2019-01-21T04:06:30.168Z,99522.23
2019-01-21T04:07:01.379Z,99526.92
2019-01-21T04:07:32.767Z,99524.80
2019-01-21T04:08:03.946Z,99524.80
2019-01-21T04:08:35.191Z,99530.79
2019-01-21T04:09:06.393Z,99525.61
2019-01-21T04:09:37.581Z,99525.64
2019-01-21T04:10:08.685Z,99529.91
2019-01-21T04:10:39.857Z,99532.88
2019-01-21T04:11:11.024Z,99534.17
2019-01-21T04:11:42.267Z,99532.85
2019-01-21T04:12:13.441Z,99362.27
2019-01-21T04:12:44.617Z,99540.56
2019-01-21T04:13:15.805Z,99538.84
2019-01-21T04:13:47.016Z,99536.67
2019-01-21T04:14:18.722Z,99538.40
2019-01-21T04:14:49.901Z,99534.55
2019-01-21T04:15:21.074Z,99538.40
2019-01-21T04:15:52.293Z,99533.70
2019-01-21T04:16:23.475Z,99534.11
2019-01-21T04:16:54.642Z,99542.26
2019-01-21T04:17:25.850Z,99536.27
2019-01-21T04:17:57.032Z,99537.96
2019-01-21T04:18:28.203Z,99534.98
2019-01-21T04:18:59.383Z,99540.53
2019-01-21T04:19:30.572Z,99539.25
2019-01-21T04:20:01.886Z,99537.96
2019-01-21T04:20:33.046Z,99540.09
2019-01-21T04:21:04.667Z,99534.54
2019-01-21T04:21:35.816Z,99536.23
2019-01-21T04:22:07.033Z,99537.96
2019-01-21T04:22:38.283Z,99534.98
2019-01-21T04:23:09.504Z,99540.53
2019-01-21T04:23:40.721Z,99540.97
2019-01-21T04:24:11.894Z,99538.80
2019-01-21T04:24:43.102Z,99537.52
2019-01-21T04:25:14.321Z,99535.80
2019-01-21T04:25:45.505Z,99537.08
2019-01-21T04:26:16.696Z,99542.22
2019-01-21T04:26:48.141Z,99542.22
2019-01-21T04:27:19.347Z,99539.61
2019-01-21T04:27:50.551Z,99543.06
2019-01-21T04:28:21.784Z,99543.91
2019-01-21T04:28:52.955Z,99543.03
2019-01-21T04:29:24.131Z,99544.34
2019-01-21T04:29:55.302Z,99542.63
2019-01-21T04:30:26.470Z,99543.47
2019-01-21T04:30:57.653Z,99543.91
2019-01-21T04:31:28.799Z,99540.45
2019-01-21T04:31:59.971Z,99545.19
2019-01-21T04:32:31.163Z,99551.17
2019-01-21T04:33:02.341Z,99543.46
2019-01-21T04:33:33.842Z,99544.71
2019-01-21T04:34:05.014Z,99540.86
2019-01-21T04:34:36.223Z,99548.56
2019-01-21T04:35:07.400Z,99545.59
2019-01-21T04:35:38.584Z,99544.31
2019-01-21T04:36:09.765Z,99546.47
2019-01-21T04:36:40.962Z,99551.61
2019-01-21T04:37:12.185Z,99550.33
2019-01-21T04:37:43.357Z,99543.47
2019-01-21T04:38:14.526Z,99545.63
2019-01-21T04:38:45.699Z,99547.77
2019-01-21T04:39:17.075Z,99544.75
2019-01-21T04:39:48.246Z,99546.48
2019-01-21T04:40:19.600Z,99548.20
2019-01-21T04:40:50.867Z,99551.63
2019-01-21T04:41:22.052Z,99551.63
2019-01-21T04:41:53.323Z,99551.22
2019-01-21T04:42:24.502Z,99555.07
2019-01-21T04:42:55.751Z,99555.48
2019-01-21T04:43:26.969Z,99553.75
2019-01-21T04:43:58.224Z,99553.75
2019-01-21T04:44:29.398Z,99555.03
2019-01-21T04:45:00.694Z,99554.19
2019-01-21T04:45:31.932Z,99552.02
2019-01-21T04:46:03.797Z,99556.32
2019-01-21T04:46:34.971Z,99555.91
2019-01-21T04:47:06.206Z,99555.91
2019-01-21T04:47:37.403Z,99555.03
2019-01-21T04:48:08.587Z,99560.61
2019-01-21T04:48:39.831Z,99553.70
2019-01-21T04:49:11.018Z,99556.72
2019-01-21T04:49:42.165Z,99564.83
2019-01-21T04:50:13.338Z,99562.70
2019-01-21T04:50:44.500Z,99560.97
2019-01-21T04:51:15.727Z,99560.09
2019-01-21T04:51:46.900Z,99557.52
2019-01-21T04:52:18.074Z,99558.80
2019-01-21T04:52:49.897Z,99563.94
2019-01-21T04:53:21.042Z,99564.34
2019-01-21T04:53:52.246Z,99559.64
2019-01-21T04:54:23.414Z,99562.66
2019-01-21T04:54:54.587Z,99562.17
2019-01-21T04:55:25.756Z,99559.64
2019-01-21T04:55:56.994Z,99560.09
2019-01-21T04:56:28.197Z,99558.36
2019-01-21T04:56:59.395Z,99566.11
2019-01-21T04:57:30.561Z,99558.80
2019-01-21T04:58:01.796Z,99562.66
2019-01-21T04:58:33.278Z,99561.81
2019-01-21T04:59:04.496Z,99566.11
2019-01-21T04:59:35.672Z,99565.23
2019-01-21T05:00:06.852Z,99569.52
2019-01-21T05:00:38.021Z,99564.78
2019-01-21T05:01:09.230Z,99563.10
2019-01-21T05:01:40.447Z,99569.09
2019-01-21T05:02:11.578Z,99566.11
2019-01-21T05:02:42.775Z,99564.83
2019-01-21T05:03:14.009Z,99571.30
2019-01-21T05:03:45.192Z,99571.70
2019-01-21T05:04:16.378Z,99570.02
2019-01-21T05:04:47.627Z,99571.30
2019-01-21T05:05:19.211Z,99570.45
2019-01-21T05:05:50.408Z,99568.77
2019-01-21T05:06:21.575Z,99573.06
2019-01-21T05:06:52.752Z,99568.33
2019-01-21T05:07:23.930Z,99566.20
2019-01-21T05:07:55.130Z,99574.80
2019-01-21T05:08:26.433Z,99574.80
2019-01-21T05:08:57.609Z,99570.94
2019-01-21T05:09:28.843Z,99578.25
2019-01-21T05:10:00.021Z,99574.83
2019-01-21T05:10:31.183Z,99573.95
2019-01-21T05:11:02.643Z,99583.39
2019-01-21T05:11:33.844Z,99578.69
2019-01-21T05:12:05.018Z,99583.42
2019-01-21T05:12:36.199Z,99585.56
2019-01-21T05:13:08.196Z,99579.98
2019-01-21T05:13:39.400Z,99583.88
2019-01-21T05:14:10.557Z,99581.30
2019-01-21T05:14:41.724Z,99582.14
2019-01-21T05:15:12.898Z,99584.72
2019-01-21T05:15:44.078Z,99581.74
2019-01-21T05:16:15.264Z,99585.59
2019-01-21T05:16:46.431Z,99584.31
2019-01-21T05:17:17.630Z,99583.91
2019-01-21T05:17:49.086Z,99586.04
2019-01-21T05:18:20.245Z,99583.50
2019-01-21T05:18:51.440Z,99581.81
2019-01-21T05:19:22.625Z,99592.10
2019-01-21T05:19:53.848Z,99585.23
2019-01-21T05:20:25.006Z,99589.13
2019-01-21T05:20:56.227Z,99592.55
2019-01-21T05:21:27.441Z,99587.84
2019-01-21T05:21:58.616Z,99588.72
2019-01-21T05:22:29.791Z,99592.98
2019-01-21T05:23:00.971Z,99590.41
2019-01-21T05:23:32.414Z,99593.02
2019-01-21T05:24:03.592Z,99592.17
2019-01-21T05:24:34.822Z,99588.31
2019-01-21T05:25:06.005Z,99590.00
2019-01-21T05:25:37.236Z,99582.28
2019-01-21T05:26:08.494Z,99592.13
2019-01-21T05:26:39.666Z,99591.29
2019-01-21T05:27:10.851Z,99587.43
2019-01-21T05:27:42.054Z,99587.88
2019-01-21T05:28:13.219Z,99596.03
2019-01-21T05:28:44.426Z,99593.89
2019-01-21T05:29:15.606Z,99583.61
2019-01-21T05:29:46.765Z,99592.61
2019-01-21T05:30:18.275Z,99589.19
2019-01-21T05:30:49.452Z,99590.92
2019-01-21T05:31:20.638Z,99599.48
2019-01-21T05:31:53.960Z,99600.36
2019-01-21T05:32:24.829Z,99598.20
2019-01-21T05:32:56.009Z,99593.05
2019-01-21T05:33:27.213Z,99595.22
2019-01-21T05:33:58.405Z,99597.34
2019-01-21T05:34:29.612Z,99600.77
2019-01-21T05:35:00.785Z,99595.66
2019-01-21T05:35:31.946Z,99595.66
2019-01-21T05:36:03.281Z,99602.93
2019-01-21T05:36:34.471Z,99599.08
2019-01-21T05:37:05.679Z,99608.92
2019-01-21T05:37:36.922Z,99598.23
2019-01-21T05:38:08.168Z,99602.93
2019-01-21T05:38:39.304Z,99596.53
2019-01-21T05:39:10.496Z,99601.67
2019-01-21T05:39:41.701Z,99607.70
2019-01-21T05:40:12.919Z,99608.14
2019-01-21T05:40:44.148Z,99601.23
2019-01-21T05:41:15.349Z,99602.97
2019-01-21T05:41:46.532Z,99603.81
2019-01-21T05:42:17.738Z,99602.97
2019-01-21T05:42:48.934Z,99602.12
2019-01-21T05:43:20.112Z,99599.98
2019-01-21T05:43:51.291Z,99603.41
2019-01-21T05:44:22.488Z,99601.23
2019-01-21T05:44:53.696Z,99600.83
2019-01-21T05:45:24.893Z,99600.39
2019-01-21T05:45:56.090Z,99600.80
2019-01-21T05:46:27.294Z,99600.36
2019-01-21T05:46:58.492Z,99601.64
2019-01-21T05:47:29.659Z,99598.23
2019-01-21T05:48:00.839Z,99602.09
2019-01-21T05:48:32.034Z,99604.22
2019-01-21T05:49:03.225Z,99600.77
2019-01-21T05:49:34.412Z,99600.36
2019-01-21T05:50:05.595Z,99599.92
2019-01-21T05:50:36.801Z,99600.80
2019-01-21T05:51:07.987Z,99604.22
2019-01-21T05:51:39.172Z,99612.78
2019-01-21T05:52:10.409Z,99454.58
2019-01-21T05:52:41.575Z,99604.66
2019-01-21T05:53:13.562Z,99603.81
2019-01-21T05:53:44.756Z,99611.13
2019-01-21T05:54:15.956Z,99607.27
2019-01-21T05:54:47.153Z,99608.55
2019-01-21T05:55:18.353Z,99608.98
2019-01-21T05:55:49.533Z,99609.86
2019-01-21T05:56:20.779Z,99607.73
2019-01-21T05:56:51.974Z,99611.15
2019-01-21T05:57:23.142Z,99609.89
2019-01-21T05:57:54.320Z,99610.73
2019-01-21T05:58:25.567Z,99610.33
2019-01-21T05:58:56.779Z,99612.47
2019-01-21T05:59:27.959Z,99609.48
2019-01-21T05:59:59.133Z,99616.35
2019-01-21T06:00:30.305Z,99611.23
2019-01-21T06:01:01.462Z,99613.81
2019-01-21T06:01:32.638Z,99614.69
2019-01-21T06:02:03.871Z,99616.81
2019-01-21T06:02:35.081Z,99612.98
2019-01-21T06:03:06.266Z,99609.12
2019-01-21T06:03:37.418Z,99614.30
2019-01-21T06:04:08.591Z,99609.58
2019-01-21T06:04:39.771Z,99615.16
2019-01-21T06:05:10.946Z,99611.73
2019-01-21T06:05:42.130Z,99613.41
2019-01-21T06:06:13.381Z,99612.95
2019-01-21T06:06:44.611Z,99616.35